Time;durP1;ratioP1;P1;durP2;ratioP2;P2;SDS_P1;SDS_P2;PMS_P1;PMS_P2;Temp;Humidity;BMP_temperature;BMP_pressure;BME280_temperature;BME280_humidity;BME280_pressure;Samples;Min_cycle;Max_cycle;Signal;HPM_P1;HPM_P2
2023/10/26 00:02:11;;;;;;;0.30;0.10;;;;;;;;;;5024311;28;20105;-83
2023/10/26 00:04:37;;;;;;;0.17;0.08;;;;;;;;;;5022853;28;20438;-83
2023/10/26 00:07:04;;;;;;;3.45;0.17;;;;;;;;;;5026196;28;20652;-82
2023/10/26 00:09:30;;;;;;;0.98;0.00;;;;;;;;;;5028686;28;20029;-83
2023/10/26 00:11:56;;;;;;;0.00;0.00;;;;;;;;;;5024616;28;20384;-84
2023/10/26 00:14:22;;;;;;;0.10;0.00;;;;;;;;;;5025931;28;20036;-84
2023/10/26 00:16:47;;;;;;;0.55;0.10;;;;;;;;;;5023000;28;20083;-83
2023/10/26 00:19:13;;;;;;;0.30;0.10;;;;;;;;;;5023737;28;20034;-83
2023/10/26 00:21:41;;;;;;;0.00;0.00;;;;;;;;;;5030059;28;20083;-84
2023/10/26 00:24:07;;;;;;;0.00;0.00;;;;;;;;;;5032228;28;20037;-84
2023/10/26 00:26:32;;;;;;;0.13;0.00;;;12.50;99.90;;;;;;5042895;28;20040;-83
2023/10/26 00:28:58;;;;;;;3.22;0.10;;;;;;;;;;5046124;28;20235;-84
2023/10/26 00:31:24;;;;;;;0.20;0.10;;;;;;;;;;5030478;28;20412;-84
2023/10/26 00:33:50;;;;;;;1.85;0.10;;;;;;;;;;5041828;28;20113;-83
2023/10/26 00:36:16;;;;;;;1.38;0.10;;;;;;;;;;5033059;28;20450;-84
2023/10/26 00:38:42;;;;;;;0.10;0.00;;;;;;;;;;5031595;28;20041;-83
2023/10/26 00:41:08;;;;;;;0.10;0.05;;;;;;;;;;5032075;28;20102;-84
2023/10/26 00:43:34;;;;;;;0.20;0.20;;;;;;;;;;5032676;28;20036;-82
2023/10/26 00:46:00;;;;;;;0.00;0.00;;;;;;;;;;5027106;28;20163;-85
2023/10/26 00:48:26;;;;;;;0.60;0.20;;;;;;;;;;5022454;28;20033;-83
2023/10/26 00:50:52;;;;;;;0.65;0.10;;;;;;;;;;5021509;28;20025;-83
2023/10/26 00:53:19;;;;;;;0.73;0.55;;;11.90;99.90;;;;;;5031315;28;20093;-83
2023/10/26 00:55:48;;;;;;;0.10;0.10;;;12.00;99.90;;;;;;5030387;28;20032;-83
2023/10/26 00:58:15;;;;;;;0.20;0.00;;;12.90;99.90;;;;;;5021980;28;20044;-82
2023/10/26 01:00:41;;;;;;;0.10;0.10;;;;;;;;;;5026680;28;20120;-84
2023/10/26 01:03:07;;;;;;;0.32;0.10;;;12.40;99.90;;;;;;5023090;28;20061;-82
2023/10/26 01:05:33;;;;;;;0.15;0.10;;;;;;;;;;5030440;28;20037;-82
2023/10/26 01:07:59;;;;;;;0.13;0.08;;;;;;;;;;5025481;28;20021;-82
2023/10/26 01:10:26;;;;;;;0.47;0.00;;;;;;;;;;5025017;28;20508;-83
2023/10/26 01:12:53;;;;;;;0.30;0.17;;;12.90;99.90;;;;;;5021449;28;20096;-84
2023/10/26 01:15:19;;;;;;;1.70;0.20;;;;;;;;;;5015680;28;20034;-83
2023/10/26 01:17:45;;;;;;;0.43;0.10;;;;;;;;;;5025749;28;20033;-84
2023/10/26 01:20:16;;;;;;;1.13;0.20;;;;;;;;;;5026596;28;20029;-83
2023/10/26 01:22:42;;;;;;;0.10;0.10;;;;;;;;;;5023258;28;20472;-83
2023/10/26 01:25:08;;;;;;;4.15;0.10;;;;;;;;;;5023921;28;20116;-83
2023/10/26 01:27:34;;;;;;;0.30;0.10;;;;;;;;;;5024483;28;20021;-86
2023/10/26 01:30:00;;;;;;;0.30;0.22;;;;;;;;;;5024323;28;20030;-85
2023/10/26 01:32:26;;;;;;;4.35;0.20;;;;;;;;;;5020804;28;20047;-83
2023/10/26 01:34:52;;;;;;;0.50;0.20;;;;;;;;;;5028089;28;20040;-83
2023/10/26 01:37:18;;;;;;;0.10;0.10;;;;;;;;;;5024702;28;20105;-83
2023/10/26 01:39:44;;;;;;;0.55;0.17;;;;;;;;;;5024563;28;20037;-85
2023/10/26 01:42:12;;;;;;;0.52;0.15;;;;;;;;;;5017535;28;20026;-84
2023/10/26 01:44:38;;;;;;;2.03;0.20;;;;;;;;;;5019918;28;20037;-83
2023/10/26 01:47:04;;;;;;;4.47;0.10;;;;;;;;;;5022802;28;20377;-83
2023/10/26 01:49:31;;;;;;;0.13;0.00;;;;;;;;;;5019720;28;20031;-85
2023/10/26 01:51:57;;;;;;;0.40;0.15;;;;;;;;;;5021492;28;20030;-85
2023/10/26 01:54:22;;;;;;;0.32;0.13;;;;;;;;;;5027439;28;20095;-83
2023/10/26 01:56:49;;;;;;;0.65;0.30;;;;;;;;;;5024674;28;20037;-85
2023/10/26 01:59:15;;;;;;;9.82;0.20;;;;;;;;;;5016445;28;20028;-83
2023/10/26 02:01:41;;;;;;;0.55;0.17;;;;;;;;;;5017605;28;20041;-83
2023/10/26 02:04:07;;;;;;;0.63;0.10;;;;;;;;;;5024305;28;20117;-84
2023/10/26 02:06:33;;;;;;;0.73;0.10;;;;;;;;;;5027614;28;20025;-83
2023/10/26 02:08:59;;;;;;;0.17;0.10;;;;;;;;;;5023220;28;20037;-84
2023/10/26 02:11:25;;;;;;;0.32;0.10;;;;;;;;;;5019245;28;20082;-84
2023/10/26 02:13:51;;;;;;;0.30;0.20;;;;;;;;;;5019877;28;20106;-84
2023/10/26 02:16:18;;;;;;;0.32;0.13;;;;;;;;;;5025655;28;20084;-84
2023/10/26 02:18:44;;;;;;;0.40;0.20;;;;;;;;;;5018954;28;20048;-84
2023/10/26 02:21:11;;;;;;;2.38;0.17;;;;;;;;;;5002771;28;20052;-85
2023/10/26 02:23:40;;;;;;;0.50;0.10;;;;;;;;;;5011849;28;20099;-84
2023/10/26 02:26:06;;;;;;;1.55;0.20;;;;;;;;;;5021103;28;20507;-84
2023/10/26 02:28:32;;;;;;;0.63;0.20;;;;;;;;;;5016786;28;20503;-84
2023/10/26 02:30:58;;;;;;;0.50;0.25;;;;;;;;;;5016837;28;20034;-83
2023/10/26 02:33:24;;;;;;;0.68;0.03;;;;;;;;;;5029085;28;20108;-83
2023/10/26 02:35:49;;;;;;;0.10;0.10;;;;;;;;;;5033477;28;20055;-84
2023/10/26 02:38:15;;;;;;;0.45;0.20;;;;;;;;;;5027437;28;20034;-83
2023/10/26 02:40:41;;;;;;;0.30;0.10;;;;;;;;;;5026450;28;20268;-84
2023/10/26 02:43:07;;;;;;;0.80;0.15;;;;;;;;;;5032069;28;20030;-84
2023/10/26 02:45:33;;;;;;;0.30;0.10;;;;;;;;;;5027816;28;20065;-84
2023/10/26 02:48:00;;;;;;;0.20;0.10;;;;;;;;;;5029323;28;20033;-84
2023/10/26 02:50:26;;;;;;;2.88;0.10;;;;;;;;;;5025485;28;20029;-84
2023/10/26 02:52:52;;;;;;;0.15;0.10;;;;;;;;;;5025705;28;20022;-84
2023/10/26 02:55:17;;;;;;;0.55;0.22;;;;;;;;;;5023324;28;20026;-82
2023/10/26 02:57:43;;;;;;;0.65;0.10;;;;;;;;;;5034845;28;20022;-83
2023/10/26 03:00:12;;;;;;;0.60;0.30;;;12.60;99.90;;;;;;5019495;28;20200;-84
2023/10/26 03:02:39;;;;;;;3.78;0.17;;;;;;;;;;5030871;28;20311;-83
2023/10/26 03:05:05;;;;;;;0.17;0.17;;;;;;;;;;5032752;28;20729;-85
2023/10/26 03:07:31;;;;;;;0.55;0.10;;;;;;;;;;5025311;28;20400;-83
2023/10/26 03:09:57;;;;;;;0.98;0.40;;;;;;;;;;5026152;28;20029;-82
2023/10/26 03:12:23;;;;;;;0.00;0.00;;;;;;;;;;5034693;28;20037;-83
2023/10/26 03:14:49;;;;;;;0.57;0.10;;;;;;;;;;5029343;28;20026;-84
2023/10/26 03:17:15;;;;;;;0.40;0.17;;;;;;;;;;5031234;28;20029;-84
2023/10/26 03:19:42;;;;;;;1.27;0.20;;;;;;;;;;5030537;28;20026;-83
2023/10/26 03:22:08;;;;;;;3.08;0.28;;;;;;;;;;5029888;28;20581;-85
2023/10/26 03:24:34;;;;;;;2.53;0.10;;;;;;;;;;5035392;28;20101;-84
2023/10/26 03:27:00;;;;;;;1.40;0.60;;;;;;;;;;5036175;28;20033;-84
2023/10/26 03:29:26;;;;;;;0.30;0.10;;;;;;;;;;5044213;28;20083;-82
2023/10/26 03:31:52;;;;;;;3.63;0.20;;;;;;;;;;5028145;28;20120;-83
2023/10/26 03:34:18;;;;;;;3.60;0.60;;;;;;;;;;5034045;28;20037;-83
2023/10/26 03:36:44;;;;;;;0.52;0.20;;;;;;;;;;5041334;28;20037;-83
2023/10/26 03:39:10;;;;;;;1.00;0.32;;;;;;;;;;5024524;28;20021;-83
2023/10/26 03:41:36;;;;;;;2.15;0.20;;;;;;;;;;5022646;28;20369;-83
2023/10/26 03:44:02;;;;;;;0.60;0.15;;;;;;;;;;5007598;28;20033;-83
2023/10/26 03:46:28;;;;;;;0.55;0.20;;;;;;;;;;5017354;28;20068;-83
2023/10/26 03:48:54;;;;;;;1.48;0.38;;;;;;;;;;5030337;28;20107;-83
2023/10/26 03:51:20;;;;;;;3.70;0.47;;;;;;;;;;5034079;28;20030;-83
2023/10/26 03:53:46;;;;;;;2.60;0.20;;;;;;;;;;5029355;28;20034;-83
2023/10/26 03:56:12;;;;;;;1.85;0.10;;;;;;;;;;5023810;28;20021;-84
2023/10/26 03:58:38;;;;;;;0.22;0.10;;;;;;;;;;5019565;28;20029;-85
2023/10/26 04:01:05;;;;;;;0.32;0.20;;;;;;;;;;5018285;28;20022;-84
2023/10/26 04:03:31;;;;;;;0.50;0.20;;;;;;;;;;5015950;28;20022;-83
2023/10/26 04:05:57;;;;;;;0.40;0.35;;;;;;;;;;5017316;28;20046;-85
2023/10/26 04:08:23;;;;;;;0.45;0.10;;;;;;;;;;5020654;28;20055;-85
2023/10/26 04:10:49;;;;;;;0.10;0.10;;;;;;;;;;5021767;28;20033;-84
2023/10/26 04:13:15;;;;;;;1.65;0.32;;;;;;;;;;5022018;28;20101;-83
2023/10/26 04:15:41;;;;;;;1.02;0.35;;;;;;;;;;5012234;28;20223;-83
2023/10/26 04:18:07;;;;;;;0.50;0.30;;;12.10;99.90;;;;;;5015968;28;20130;-82
2023/10/26 04:20:33;;;;;;;3.40;0.85;;;;;;;;;;5029422;28;20026;-83
2023/10/26 04:22:59;;;;;;;0.57;0.20;;;;;;;;;;5013267;28;20032;-83
2023/10/26 04:25:28;;;;;;;2.22;0.40;;;;;;;;;;5035191;28;20037;-83
2023/10/26 04:27:55;;;;;;;2.72;0.20;;;;;;;;;;5033799;28;20045;-84
2023/10/26 04:30:21;;;;;;;1.23;0.20;;;;;;;;;;5046607;28;20014;-81
2023/10/26 04:32:47;;;;;;;0.15;0.10;;;;;;;;;;5032236;28;20037;-83
2023/10/26 04:35:13;;;;;;;0.80;0.20;;;;;;;;;;5036885;28;20113;-82
2023/10/26 04:37:39;;;;;;;2.13;0.30;;;11.40;99.90;;;;;;5021034;28;20041;-84
2023/10/26 04:40:05;;;;;;;0.55;0.17;;;;;;;;;;5035258;28;20117;-83
2023/10/26 04:42:32;;;;;;;2.60;0.20;;;;;;;;;;5023529;28;21735;-85
2023/10/26 04:44:57;;;;;;;0.50;0.20;;;;;;;;;;5024297;28;20041;-84
2023/10/26 04:47:23;;;;;;;0.88;0.45;;;;;;;;;;5013602;28;20040;-88
2023/10/26 04:49:50;;;;;;;0.77;0.20;;;;;;;;;;5012881;28;20073;-84
2023/10/26 04:52:18;;;;;;;0.68;0.25;;;12.10;99.90;;;;;;5020223;28;20665;-83
2023/10/26 04:54:44;;;;;;;1.17;0.30;;;;;;;;;;5018170;28;20026;-84
2023/10/26 04:57:10;;;;;;;0.30;0.20;;;;;;;;;;5019654;28;20034;-86
2023/10/26 04:59:36;;;;;;;1.67;0.45;;;;;;;;;;5026547;28;20036;-86
2023/10/26 05:02:02;;;;;;;2.75;0.40;;;;;;;;;;5019266;28;20030;-82
2023/10/26 05:04:28;;;;;;;1.33;0.32;;;;;;;;;;5024361;28;20053;-86
2023/10/26 05:06:54;;;;;;;3.60;0.40;;;;;;;;;;5030763;28;20021;-82
2023/10/26 05:09:20;;;;;;;0.55;0.30;;;;;;;;;;5023358;28;20593;-87
2023/10/26 05:11:46;;;;;;;1.08;0.43;;;;;;;;;;5026001;28;20060;-85
2023/10/26 05:14:12;;;;;;;1.90;0.30;;;;;;;;;;5029430;28;20052;-86
2023/10/26 05:16:38;;;;;;;0.57;0.20;;;;;;;;;;5030562;28;20496;-85
2023/10/26 05:19:04;;;;;;;0.40;0.10;;;;;;;;;;5031573;28;20549;-84
2023/10/26 05:21:30;;;;;;;0.65;0.25;;;;;;;;;;5025645;28;20038;-85
2023/10/26 05:23:56;;;;;;;1.90;0.50;;;;;;;;;;5025563;28;20021;-84
2023/10/26 05:26:22;;;;;;;0.28;0.20;;;;;;;;;;5030188;28;20512;-84
2023/10/26 05:28:48;;;;;;;5.85;0.93;;;;;;;;;;5025802;28;20026;-84
2023/10/26 05:31:14;;;;;;;4.35;0.88;;;;;;;;;;5025355;28;20121;-84
2023/10/26 05:33:41;;;;;;;3.38;0.40;;;11.40;99.90;;;;;;5030144;28;20029;-84
2023/10/26 05:36:07;;;;;;;0.50;0.20;;;;;;;;;;5023315;28;20038;-85
2023/10/26 05:38:33;;;;;;;1.67;0.30;;;;;;;;;;5019576;28;20037;-85
2023/10/26 05:40:59;;;;;;;1.88;0.30;;;;;;;;;;5022772;28;20040;-84
2023/10/26 05:43:25;;;;;;;1.20;0.50;;;;;;;;;;5021268;28;20030;-84
2023/10/26 05:45:52;;;;;;;0.88;0.22;;;;;;;;;;5026842;28;20037;-84
2023/10/26 05:48:19;;;;;;;2.47;0.80;;;;;;;;;;5035214;28;20065;-83
2023/10/26 05:50:46;;;;;;;0.73;0.32;;;;;;;;;;5030473;28;20033;-82
2023/10/26 05:53:12;;;;;;;0.55;0.20;;;;;;;;;;5032157;28;20463;-84
2023/10/26 05:55:41;;;;;;;0.43;0.20;;;;;;;;;;5034773;28;20555;-82
2023/10/26 05:58:09;;;;;;;1.67;0.43;;;;;;;;;;5029314;28;20060;-84
2023/10/26 06:00:35;;;;;;;0.65;0.30;;;;;;;;;;5035075;28;20029;-83
2023/10/26 06:03:00;;;;;;;0.77;0.20;;;;;;;;;;5036322;28;20029;-84
2023/10/26 06:05:26;;;;;;;1.13;0.30;;;;;;;;;;5035608;28;20510;-81
2023/10/26 06:07:52;;;;;;;0.30;0.10;;;;;;;;;;5031002;28;20038;-84
2023/10/26 06:10:18;;;;;;;3.50;0.85;;;;;;;;;;5035439;28;20035;-83
2023/10/26 06:12:44;;;;;;;0.85;0.40;;;;;;;;;;5037384;28;20396;-82
2023/10/26 06:15:10;;;;;;;0.93;0.30;;;;;;;;;;5038587;28;20373;-84
2023/10/26 06:17:36;;;;;;;1.88;0.68;;;;;;;;;;5037750;28;20128;-85
2023/10/26 06:20:03;;;;;;;0.88;0.40;;;;;;;;;;5038347;28;20028;-83
2023/10/26 06:22:29;;;;;;;3.17;0.43;;;;;;;;;;5039806;28;20508;-83
2023/10/26 06:24:55;;;;;;;0.63;0.30;;;11.80;99.90;;;;;;5038072;28;20080;-83
2023/10/26 06:27:21;;;;;;;0.85;0.20;;;;;;;;;;5034139;28;20799;-81
2023/10/26 06:29:51;;;;;;;0.60;0.20;;;11.40;99.90;;;;;;5041609;28;20025;-83
2023/10/26 06:32:17;;;;;;;1.38;0.70;;;;;;;;;;5039004;28;20112;-82
2023/10/26 06:34:43;;;;;;;4.85;0.75;;;11.60;99.90;;;;;;5039014;28;20061;-82
2023/10/26 06:37:09;;;;;;;1.63;0.50;;;11.20;99.90;;;;;;5040787;28;20127;-82
2023/10/26 06:39:35;;;;;;;0.45;0.38;;;;;;;;;;5036199;28;20034;-82
2023/10/26 06:42:01;;;;;;;1.63;0.40;;;;;;;;;;5038501;28;20021;-83
2023/10/26 06:44:27;;;;;;;1.85;0.30;;;;;;;;;;5041101;28;20092;-82
2023/10/26 06:46:53;;;;;;;0.50;0.20;;;;;;;;;;5036740;28;20033;-84
2023/10/26 06:49:19;;;;;;;2.47;0.40;;;;;;;;;;5034224;28;20037;-82
2023/10/26 06:51:45;;;;;;;0.40;0.20;;;;;;;;;;5036439;28;20044;-81
2023/10/26 06:54:11;;;;;;;5.43;0.63;;;;;;;;;;5040492;28;20057;-83
2023/10/26 06:56:37;;;;;;;1.65;0.57;;;;;;;;;;5037548;28;20036;-83
2023/10/26 06:59:04;;;;;;;0.60;0.30;;;12.10;99.90;;;;;;5036303;28;20022;-83
2023/10/26 07:01:31;;;;;;;1.33;0.55;;;;;;;;;;5039309;28;20053;-83
2023/10/26 07:03:57;;;;;;;0.55;0.30;;;;;;;;;;5037062;28;20034;-83
2023/10/26 07:06:23;;;;;;;1.08;0.30;;;;;;;;;;5034596;28;20041;-82
2023/10/26 07:08:50;;;;;;;1.30;0.40;;;12.20;99.90;;;;;;5036038;28;20028;-83
2023/10/26 07:11:15;;;;;;;4.05;0.20;;;12.40;99.90;;;;;;5029408;28;20057;-83
2023/10/26 07:13:41;;;;;;;0.57;0.20;;;;;;;;;;5039096;28;20510;-84
2023/10/26 07:16:07;;;;;;;1.13;0.22;;;12.00;99.90;;;;;;5038479;28;20033;-83
2023/10/26 07:18:33;;;;;;;2.50;0.10;;;12.60;99.90;;;;;;5038270;28;20033;-83
2023/10/26 07:20:59;;;;;;;0.10;0.10;;;;;;;;;;5040616;28;20029;-84
2023/10/26 07:23:25;;;;;;;0.75;0.22;;;;;;;;;;5042120;28;20052;-85
2023/10/26 07:25:51;;;;;;;0.90;0.20;;;;;;;;;;5037277;28;20022;-84
2023/10/26 07:28:17;;;;;;;1.05;0.88;;;;;;;;;;5041925;28;20026;-84
2023/10/26 07:30:44;;;;;;;1.30;0.38;;;;;;;;;;5041026;28;20024;-84
2023/10/26 07:33:10;;;;;;;0.65;0.20;;;12.30;99.90;;;;;;5037293;28;20404;-85
2023/10/26 07:35:40;;;;;;;1.42;0.43;;;12.50;99.90;;;;;;5035582;28;20032;-84
2023/10/26 07:38:07;;;;;;;1.38;0.28;;;12.00;99.90;;;;;;5039178;28;20033;-85
2023/10/26 07:40:33;;;;;;;2.65;0.30;;;;;;;;;;5034530;28;20025;-84
2023/10/26 07:43:00;;;;;;;2.22;0.20;;;;;;;;;;5037467;28;20022;-82
2023/10/26 07:45:26;;;;;;;2.75;0.15;;;;;;;;;;5039256;28;20044;-86
2023/10/26 07:47:52;;;;;;;1.52;0.30;;;;;;;;;;5038641;28;20033;-83
2023/10/26 07:50:20;;;;;;;0.50;0.20;;;;;;;;;;5036564;28;20056;-83
2023/10/26 07:52:46;;;;;;;3.25;0.22;;;;;;;;;;5037179;28;20145;-84
2023/10/26 07:55:12;;;;;;;0.25;0.10;;;;;;;;;;5038906;28;20048;-83
2023/10/26 07:57:38;;;;;;;1.10;0.28;;;;;;;;;;5036459;28;20036;-84
2023/10/26 08:00:04;;;;;;;0.45;0.30;;;;;;;;;;5039335;28;20022;-82
2023/10/26 08:02:30;;;;;;;3.45;0.32;;;;;;;;;;5038881;28;20396;-84
2023/10/26 08:04:56;;;;;;;8.07;0.52;;;;;;;;;;5040398;28;20033;-84
2023/10/26 08:07:22;;;;;;;0.47;0.10;;;;;;;;;;5039383;28;20048;-83
2023/10/26 08:09:48;;;;;;;0.20;0.15;;;13.90;99.90;;;;;;5034741;28;20033;-82
2023/10/26 08:12:14;;;;;;;1.17;0.10;;;;;;;;;;5033448;28;20029;-83
2023/10/26 08:14:40;;;;;;;0.60;0.20;;;;;;;;;;5036354;28;20397;-85
2023/10/26 08:17:06;;;;;;;0.28;0.10;;;;;;;;;;5037103;28;20163;-84
2023/10/26 08:19:32;;;;;;;0.88;0.20;;;;;;;;;;5049643;28;20025;-86
2023/10/26 08:21:58;;;;;;;1.67;0.20;;;;;;;;;;5049033;28;20070;-86
2023/10/26 08:24:24;;;;;;;1.35;0.30;;;;;;;;;;5041891;28;20056;-84
2023/10/26 08:26:51;;;;;;;0.57;0.13;;;;;;;;;;5039235;28;20037;-85
2023/10/26 08:29:44;;;;;;;0.63;0.20;;;19.50;99.90;;;;;;5040759;28;20035;-84
2023/10/26 08:32:10;;;;;;;1.02;0.08;;;;;;;;;;5037191;28;20025;-86
2023/10/26 08:34:37;;;;;;;1.20;0.28;;;;;;;;;;5037974;28;20051;-84
2023/10/26 08:37:02;;;;;;;1.73;0.40;;;20.00;99.90;;;;;;5035699;28;20088;-84
2023/10/26 08:39:28;;;;;;;0.98;0.10;;;;;;;;;;5038667;28;20033;-83
2023/10/26 08:41:57;;;;;;;0.82;0.30;;;19.50;99.90;;;;;;5033943;28;20028;-85
2023/10/26 08:44:24;;;;;;;0.57;0.10;;;19.10;99.90;;;;;;5034778;28;20057;-83
2023/10/26 08:46:53;;;;;;;0.38;0.20;;;18.20;99.90;;;;;;5038492;28;20048;-85
2023/10/26 08:49:20;;;;;;;1.10;0.28;;;;;;;;;;5031602;28;20033;-82
2023/10/26 08:51:46;;;;;;;2.13;0.20;;;;;;;;;;5028787;28;20080;-81
2023/10/26 08:54:12;;;;;;;0.50;0.20;;;;;;;;;;5037485;28;20025;-83
2023/10/26 08:56:37;;;;;;;0.75;0.20;;;;;;;;;;5036307;28;20048;-84
2023/10/26 08:59:04;;;;;;;0.45;0.15;;;;;;;;;;5035553;28;20113;-85
2023/10/26 09:01:30;;;;;;;0.65;0.32;;;;;;;;;;5032530;28;20089;-84
2023/10/26 09:03:57;;;;;;;0.60;0.10;;;;;;;;;;5026954;28;20053;-84
2023/10/26 09:06:23;;;;;;;5.15;0.30;;;;;;;;;;5036139;28;20369;-83
2023/10/26 09:09:03;;;;;;;0.43;0.20;;;14.90;99.90;;;;;;5029994;28;20037;-83
2023/10/26 09:11:29;;;;;;;0.75;0.20;;;14.80;99.90;;;;;;5031802;28;20038;-83
2023/10/26 09:14:12;;;;;;;1.75;0.20;;;15.70;99.90;;;;;;5034360;28;20247;-82
2023/10/26 09:16:40;;;;;;;0.20;0.20;;;;;;;;;;5036532;28;20037;-83
2023/10/26 09:19:06;;;;;;;0.93;0.30;;;;;;;;;;5032638;28;20057;-82
2023/10/26 09:21:48;;;;;;;0.57;0.28;;;;;;;;;;5032989;28;20026;-83
2023/10/26 09:24:19;;;;;;;0.28;0.20;;;;;;;;;;5036305;28;20028;-82
2023/10/26 09:26:46;;;;;;;4.03;0.80;;;;;;;;;;5041708;28;20445;-85
2023/10/26 09:29:13;;;;;;;1.38;0.57;;;;;;;;;;5038313;28;20040;-85
2023/10/26 09:31:52;;;;;;;1.13;0.55;;;;;;;;;;5048570;28;20005;-85
2023/10/26 09:34:18;;;;;;;1.30;0.47;;;;;;;;;;5046121;28;20021;-84
2023/10/26 09:36:58;;;;;;;3.50;0.60;;;14.30;99.90;;;;;;5051195;28;20033;-85
2023/10/26 09:39:24;;;;;;;0.88;0.20;;;;;;;;;;5048445;28;20035;-82
2023/10/26 09:41:50;;;;;;;4.13;0.28;;;;;;;;;;5029957;28;20053;-83
2023/10/26 09:44:17;;;;;;;1.23;0.20;;;;;;;;;;5028896;28;20093;-84
2023/10/26 09:46:43;;;;;;;0.75;0.30;;;;;;;;;;5027992;28;20038;-82
2023/10/26 09:49:09;;;;;;;0.30;0.10;;;14.70;99.90;;;;;;5030518;28;20026;-83
2023/10/26 09:51:35;;;;;;;0.98;0.20;;;;;;;;;;5029609;28;20087;-82
2023/10/26 09:54:04;;;;;;;1.95;0.30;;;;;;;;;;5030362;28;20029;-81
2023/10/26 09:56:31;;;;;;;0.30;0.20;;;;;;;;;;5027602;28;20481;-85
2023/10/26 09:58:59;;;;;;;1.85;0.25;;;;;;;;;;5027038;28;20036;-84
2023/10/26 10:01:34;;;;;;;2.72;0.50;;;13.80;99.90;;;;;;5028293;28;20033;-83
2023/10/26 10:04:00;;;;;;;4.68;0.20;;;;;;;;;;5036569;28;20049;-83
2023/10/26 10:06:47;;;;;;;0.93;0.25;;;;;;;;;;5033516;28;20033;-85
2023/10/26 10:09:13;;;;;;;0.20;0.10;;;;;;;;;;5033602;28;20033;-82
2023/10/26 10:11:40;;;;;;;1.90;0.40;;;;;;;;;;5035088;28;20034;-85
2023/10/26 10:14:06;;;;;;;2.47;0.30;;;;;;;;;;5032063;28;20128;-83
2023/10/26 10:16:35;;;;;;;0.50;0.28;;;14.60;99.90;;;;;;5037780;28;20017;-85
2023/10/26 10:19:17;;;;;;;1.98;0.10;;;;;;;;;;5037566;28;20026;-85
2023/10/26 10:21:43;;;;;;;0.30;0.20;;;;;;;;;;5033784;28;20049;-84
2023/10/26 10:24:09;;;;;;;0.75;0.40;;;;;;;;;;5033442;28;20044;-85
2023/10/26 10:26:54;;;;;;;4.78;0.25;;;;;;;;;;5037877;28;20492;-85
2023/10/26 10:29:21;;;;;;;1.08;0.10;;;;;;;;;;5038662;28;20025;-85
2023/10/26 10:31:46;;;;;;;0.88;0.50;;;14.10;99.90;;;;;;5039137;28;20037;-85
2023/10/26 10:34:15;;;;;;;1.15;0.30;;;;;;;;;;5040816;28;20649;-84
2023/10/26 10:37:00;;;;;;;0.45;0.20;;;;;;;;;;5038827;28;20044;-83
2023/10/26 10:39:26;;;;;;;0.93;0.43;;;;;;;;;;5033697;28;20029;-83
2023/10/26 10:41:52;;;;;;;1.42;0.30;;;;;;;;;;5040101;28;20022;-83
2023/10/26 10:44:18;;;;;;;1.52;0.35;;;;;;;;;;5038404;28;20088;-83
2023/10/26 10:46:47;;;;;;;1.33;0.30;;;13.60;99.90;;;;;;5040776;28;20037;-83
2023/10/26 10:49:14;;;;;;;3.17;0.38;;;14.00;99.90;;;;;;5038656;28;20041;-83
2023/10/26 10:51:42;;;;;;;1.85;0.28;;;;;;;;;;5036503;28;20470;-84
2023/10/26 10:54:10;;;;;;;0.30;0.20;;;13.50;99.90;;;;;;5031371;28;20038;-82
2023/10/26 10:56:40;;;;;;;1.08;0.32;;;13.50;99.90;;;;;;5036405;28;20053;-82
2023/10/26 10:59:27;;;;;;;0.17;0.10;;;13.70;99.90;;;;;;5036178;28;20136;-83
2023/10/26 11:02:10;;;;;;;1.50;0.10;;;13.30;99.90;;;;;;5037920;28;20026;-83
2023/10/26 11:04:51;;;;;;;0.45;0.17;;;;;;;;;;5032768;28;20367;-83
2023/10/26 11:07:17;;;;;;;0.60;0.20;;;;;;;;;;5026813;28;20024;-82
2023/10/26 11:09:45;;;;;;;0.15;0.10;;;;;;;;;;5024875;28;20093;-82
2023/10/26 11:12:11;;;;;;;1.38;0.30;;;;;;;;;;5028345;28;20022;-83
2023/10/26 11:14:49;;;;;;;0.80;0.30;;;;;;;;;;5026711;28;20087;-82
2023/10/26 11:17:16;;;;;;;1.55;0.22;;;13.90;99.90;;;;;;5034885;28;20029;-82
2023/10/26 11:19:41;;;;;;;2.08;0.10;;;;;;;;;;5028268;28;20045;-82
2023/10/26 11:22:07;;;;;;;1.25;0.30;;;;;;;;;;5035406;28;20041;-81
2023/10/26 11:24:33;;;;;;;0.75;0.35;;;;;;;;;;5028662;28;20065;-83
2023/10/26 11:27:06;;;;;;;1.92;0.60;;;;;;;;;;5032249;28;20026;-82
2023/10/26 11:29:32;;;;;;;3.92;0.88;;;;;;;;;;5027324;28;20128;-86
2023/10/26 11:31:58;;;;;;;3.08;0.70;;;;;;;;;;5022103;28;20116;-82
2023/10/26 11:34:27;;;;;;;2.28;0.50;;;;;;;;;;5035926;28;20040;-81
2023/10/26 11:36:53;;;;;;;1.63;0.40;;;;;;;;;;5029048;28;20084;-82
2023/10/26 11:39:19;;;;;;;1.65;0.70;;;;;;;;;;5031481;28;20056;-82
2023/10/26 11:41:55;;;;;;;1.55;0.28;;;;;;;;;;5032276;28;20034;-81
2023/10/26 11:44:27;;;;;;;0.88;0.28;;;14.90;99.90;;;;;;5037304;28;20136;-81
2023/10/26 11:47:00;;;;;;;4.63;0.98;;;;;;;;;;5036934;28;20116;-81
2023/10/26 11:49:26;;;;;;;;;;;;;;;;;;5034049;28;20493;-82
2023/10/26 11:51:52;;;;;;;2.15;0.88;;;;;;;;;;5031408;28;19909;-81
2023/10/26 11:54:18;;;;;;;3.10;0.50;;;;;;;;;;5031148;28;20560;-83
2023/10/26 11:56:44;;;;;;;2.38;0.70;;;;;;;;;;5033985;28;20440;-84
2023/10/26 11:59:10;;;;;;;2.33;0.47;;;;;;;;;;5026673;28;20414;-83
2023/10/26 12:01:36;;;;;;;1.63;0.35;;;;;;;;;;5033324;28;20037;-83
2023/10/26 12:04:02;;;;;;;0.90;0.35;;;;;;;;;;5028255;28;20125;-82
2023/10/26 12:06:31;;;;;;;1.05;0.32;;;;;;;;;;5028644;28;20030;-83
2023/10/26 12:08:57;;;;;;;0.88;0.55;;;;;;;;;;5031434;28;20026;-84
2023/10/26 12:11:23;;;;;;;0.90;0.30;;;;;;;;;;5032069;28;20040;-82
2023/10/26 12:13:49;;;;;;;2.30;0.43;;;;;;;;;;5027425;28;20033;-82
2023/10/26 12:16:15;;;;;;;1.15;0.30;;;;;;;;;;5031881;28;20060;-83
2023/10/26 12:18:41;;;;;;;0.93;0.40;;;;;;;;;;5031647;28;20029;-84
2023/10/26 12:21:07;;;;;;;2.15;0.30;;;;;;;;;;5030036;28;20149;-84
2023/10/26 12:23:33;;;;;;;1.58;0.40;;;;;;;;;;5036620;28;20021;-84
2023/10/26 12:25:59;;;;;;;1.67;0.73;;;;;;;;;;5027578;28;20572;-83
2023/10/26 12:28:26;;;;;;;0.88;0.30;;;;;;;;;;5030961;28;20037;-85
2023/10/26 12:30:53;;;;;;;1.45;0.47;;;;;;;;;;5025951;28;20033;-84
2023/10/26 12:33:19;;;;;;;2.50;0.20;;;;;;;;;;5032338;28;20025;-88
2023/10/26 12:35:46;;;;;;;0.50;0.30;;;;;;;;;;5048806;28;20040;-86
2023/10/26 12:38:12;;;;;;;0.57;0.20;;;;;;;;;;5045130;28;20022;-86
2023/10/26 12:40:38;;;;;;;2.78;0.50;;;;;;;;;;5041284;28;20116;-89
2023/10/26 12:43:04;;;;;;;2.30;0.68;;;;;;;;;;5037986;28;20029;-85
2023/10/26 12:45:31;;;;;;;2.33;0.38;;;;;;;;;;5035873;28;20099;-88
2023/10/26 12:47:57;;;;;;;2.67;0.45;;;;;;;;;;5032515;28;20030;-88
2023/10/26 12:50:23;;;;;;;2.03;0.30;;;;;;;;;;5037811;28;20025;-86
2023/10/26 12:52:49;;;;;;;1.25;0.22;;;;;;;;;;5034963;28;20021;-84
2023/10/26 12:55:15;;;;;;;0.50;0.22;;;;;;;;;;5036900;28;20017;-85
2023/10/26 12:57:40;;;;;;;2.10;0.22;;;;;;;;;;5031559;28;20119;-86
2023/10/26 13:00:07;;;;;;;0.90;0.40;;;;;;;;;;5031391;28;20029;-84
2023/10/26 13:02:33;;;;;;;3.85;0.30;;;;;;;;;;5035129;28;20075;-85
2023/10/26 13:04:59;;;;;;;0.38;0.20;;;;;;;;;;5035533;28;20038;-85
2023/10/26 13:07:27;;;;;;;4.53;0.45;;;;;;;;;;5025416;28;20057;-85
2023/10/26 13:09:53;;;;;;;2.08;0.65;;;;;;;;;;5033486;28;20017;-84
2023/10/26 13:12:19;;;;;;;3.30;0.30;;;;;;;;;;5036112;28;20113;-83
2023/10/26 13:14:45;;;;;;;5.07;0.40;;;;;;;;;;5027198;28;20060;-84
2023/10/26 13:17:11;;;;;;;0.98;0.30;;;;;;;;;;5030440;28;20383;-84
2023/10/26 13:19:37;;;;;;;0.68;0.20;;;;;;;;;;5032255;28;20044;-85
2023/10/26 13:22:03;;;;;;;1.98;0.22;;;;;;;;;;5023122;28;20443;-89
2023/10/26 13:24:30;;;;;;;0.80;0.20;;;;;;;;;;5028077;28;20030;-84
2023/10/26 13:26:57;;;;;;;0.88;0.35;;;;;;;;;;5031677;28;20450;-87
2023/10/26 13:29:23;;;;;;;0.80;0.45;;;;;;;;;;5023099;28;20025;-83
2023/10/26 13:31:49;;;;;;;1.17;0.35;;;;;;;;;;5027441;28;20101;-85
2023/10/26 13:34:15;;;;;;;2.15;0.30;;;;;;;;;;5029730;28;20029;-83
2023/10/26 13:36:41;;;;;;;5.18;0.35;;;;;;;;;;5033519;28;20048;-84
2023/10/26 13:39:08;;;;;;;0.20;0.00;;;;;;;;;;5034938;28;20104;-84
2023/10/26 13:41:34;;;;;;;1.05;0.20;;;;;;;;;;5027166;28;20029;-85
2023/10/26 13:44:00;;;;;;;2.72;0.20;;;;;;;;;;5029238;28;20029;-84
2023/10/26 13:46:26;;;;;;;0.40;0.20;;;;;;;;;;5033124;28;20441;-83
2023/10/26 13:48:52;;;;;;;0.73;0.30;;;;;;;;;;5031147;28;20032;-83
2023/10/26 13:51:18;;;;;;;0.40;0.10;;;;;;;;;;5034656;28;20048;-85
2023/10/26 13:53:44;;;;;;;1.55;0.28;;;;;;;;;;5035226;28;20029;-86
2023/10/26 13:56:10;;;;;;;0.20;0.13;;;;;;;;;;5029869;28;20021;-87
2023/10/26 13:58:36;;;;;;;2.78;0.30;;;;;;;;;;5031967;28;20452;-86
2023/10/26 14:01:02;;;;;;;0.30;0.10;;;;;;;;;;5024976;28;20584;-84
2023/10/26 14:03:29;;;;;;;0.45;0.10;;;;;;;;;;5034894;28;20446;-82
2023/10/26 14:05:56;;;;;;;1.83;0.15;;;;;;;;;;5039508;28;20037;-85
2023/10/26 14:08:22;;;;;;;1.23;0.40;;;;;;;;;;5032893;28;20025;-84
2023/10/26 14:10:48;;;;;;;0.65;0.30;;;;;;;;;;5029044;28;20036;-83
2023/10/26 14:13:14;;;;;;;0.40;0.10;;;;;;;;;;5024129;28;20033;-84
2023/10/26 14:15:40;;;;;;;7.22;0.20;;;;;;;;;;5033633;28;20071;-90
2023/10/26 14:18:06;;;;;;;0.77;0.20;;;;;;;;;;5024200;28;20037;-86
2023/10/26 14:20:32;;;;;;;0.55;0.20;;;;;;;;;;5024487;28;20503;-86
2023/10/26 14:22:58;;;;;;;2.83;0.30;;;;;;;;;;5031570;28;20045;-85
2023/10/26 14:25:24;;;;;;;0.68;0.20;;;;;;;;;;5030594;28;20034;-87